Time;durP1;ratioP1;P1;durP2;ratioP2;P2;SDS_P1;SDS_P2;PMS_P1;PMS_P2;Temp;Humidity;BMP_temperature;BMP_pressure;BME280_temperature;BME280_humidity;BME280_pressure;Samples;Min_cycle;Max_cycle;Signal;HPM_P1;HPM_P2
2022/05/29 00:01:43;;;;;;;19.58;2.83;;;;;;;;;;4943035;28;20110;-87
2022/05/29 00:04:09;;;;;;;21.10;3.70;;;;;;;;;;4961975;28;20597;-86
2022/05/29 00:06:38;;;;;;;24.55;3.60;;;;;;;;;;4949897;28;20494;-85
2022/05/29 00:09:04;;;;;;;12.73;3.58;;;;;;;;;;4951283;28;20027;-87
2022/05/29 00:11:31;;;;;;;15.40;3.53;;;;;;;;;;4943461;28;20035;-87
2022/05/29 00:14:00;;;;;;;21.95;3.58;;;;;;;;;;4949746;28;20557;-87
2022/05/29 00:16:27;;;;;;;16.30;4.32;;;;;;;;;;4948445;28;20509;-87
2022/05/29 00:18:53;;;;;;;12.88;3.20;;;;;;;;;;4947459;28;20026;-88
2022/05/29 00:21:19;;;;;;;12.77;3.05;;;;;;;;;;4959927;28;20039;-87
2022/05/29 00:23:49;;;;;;;21.02;4.38;;;;;;;;;;4955696;28;20569;-87
2022/05/29 00:26:16;;;;;;;15.45;3.42;;;;;;;;;;4961452;28;20031;-87
2022/05/29 00:28:43;;;;;;;16.63;3.20;;;;;;;;;;4954824;28;20034;-88
2022/05/29 00:31:09;;;;;;;20.67;4.05;;;;;;;;;;4946550;28;20430;-85
2022/05/29 00:33:35;;;;;;;14.18;3.28;;;;;;;;;;4946396;28;20117;-86
2022/05/29 00:36:02;;;;;;;15.00;2.95;;;;;;;;;;4961529;28;20095;-86
2022/05/29 00:38:28;;;;;;;29.58;3.67;;;;;;;;;;4945119;28;20046;-87
2022/05/29 00:40:57;;;;;;;23.15;3.88;;;;;;;;;;4965280;28;20390;-87
2022/05/29 00:43:24;;;;;;;27.70;3.90;;;;;;;;;;4950281;28;20049;-87
2022/05/29 00:46:00;;;;;;;14.80;3.15;;;;;;;;;;4963562;28;20446;-88
2022/05/29 00:48:27;;;;;;;25.13;3.90;;;;;;;;;;4943922;28;20379;-89
2022/05/29 00:50:56;;;;;;;12.75;3.70;;;;;;;;;;4948907;28;20962;-88
2022/05/29 00:53:23;;;;;;;12.68;2.80;;;;;;;;;;4948251;28;20082;-87
2022/05/29 00:56:08;;;;;;;22.98;3.80;;;;;;;;;;4963698;28;20047;-88
2022/05/29 00:58:35;;;;;;;19.00;3.45;;;;;;;;;;4961387;28;20097;-87
2022/05/29 01:01:02;;;;;;;18.55;3.80;;;;;;;;;;4942714;28;20038;-86
2022/05/29 01:03:28;;;;;;;9.35;2.95;;;;;;;;;;4948691;28;20042;-87
2022/05/29 01:05:54;;;;;;;12.32;3.30;;;;;;;;;;4950307;28;20383;-87
2022/05/29 01:08:26;;;;;;;16.77;2.75;;;;;;;;;;4947026;28;20041;-87
2022/05/29 01:11:13;;;;;;;22.55;3.65;;;;;;;;;;4950494;28;20490;-87
2022/05/29 01:13:48;;;;;;;14.32;3.55;;;;;;;;;;4941931;28;20045;-88
2022/05/29 01:16:35;;;;;;;10.40;2.67;;;;;;;;;;4957398;28;20035;-87
2022/05/29 01:19:10;;;;;;;11.45;2.78;;;;;;;;;;4966093;28;20108;-89
2022/05/29 01:21:55;;;;;;;13.23;2.97;;;;;;;;;;4942790;28;20557;-87
2022/05/29 01:24:27;;;;;;;21.52;3.45;;;;;;;;;;4965969;28;20307;-87
2022/05/29 01:26:58;;;;;;;14.10;3.28;;;;;;;;;;4965182;28;20487;-88
2022/05/29 01:29:33;;;;;;;12.27;2.85;;;;;;;;;;4974682;28;20018;-87
2022/05/29 01:32:14;;;;;;;14.17;2.97;;;;;;;;;;4975286;28;20054;-88
2022/05/29 01:34:52;;;;;;;11.02;2.65;;;;;;;;;;4973105;28;20089;-88
2022/05/29 01:37:48;;;;;;;16.55;3.97;;;;;;;;;;4965335;28;20038;-88
2022/05/29 01:40:14;;;;;;;19.05;3.47;;;;;;;;;;4893266;28;20048;-87
2022/05/29 01:42:49;;;;;;;16.40;3.35;;;;;;;;;;4956724;28;20516;-88
2022/05/29 01:45:27;;;;;;;9.52;2.72;;;;;;;;;;4971056;28;20046;-87
2022/05/29 01:48:04;;;;;;;17.08;3.78;;;;;;;;;;4976585;28;20031;-87
2022/05/29 01:50:52;;;;;;;12.82;3.20;;;;;;;;;;4957815;28;20038;-87
2022/05/29 01:53:21;;;;;;;17.80;3.25;;;;;;;;;;4973286;28;20186;-87
2022/05/29 01:55:50;;;;;;;14.10;3.17;;;;;;;;;;4976189;28;20621;-88
2022/05/29 01:58:32;;;;;;;18.83;4.00;;;;;;;;;;4958903;28;20452;-87
2022/05/29 02:01:00;;;;;;;13.13;2.90;;;;;;;;;;4976157;28;20433;-87
2022/05/29 02:03:31;;;;;;;12.98;3.47;;;;;;;;;;4959267;28;20109;-87
2022/05/29 02:05:59;;;;;;;15.90;3.17;;;;;;;;;;4959683;28;20522;-87
2022/05/29 02:08:38;;;;;;;17.25;3.92;;;;;;;;;;4964069;28;20035;-86
2022/05/29 02:11:07;;;;;;;19.38;3.10;;;;;;;;;;4965789;28;20031;-87
2022/05/29 02:13:36;;;;;;;10.43;2.50;;;;;;;;;;4967176;28;20065;-86
2022/05/29 02:16:05;;;;;;;10.25;2.45;;;;;;;;;;4989342;28;20130;-88
2022/05/29 02:18:35;;;;;;;12.30;3.03;;;;;;;;;;4955965;28;20049;-87
2022/05/29 02:21:12;;;;;;;9.07;2.58;;;;;;;;;;4963006;28;20426;-88
2022/05/29 02:23:41;;;;;;;13.45;2.25;;;;;;;;;;4962814;28;20097;-85
2022/05/29 02:26:08;;;;;;;10.88;2.05;;;;;;;;;;4977653;28;20039;-87
2022/05/29 02:28:37;;;;;;;12.93;2.70;;;;;;;;;;4960021;28;20085;-86
2022/05/29 02:31:16;;;;;;;13.73;2.30;;;;;;;;;;4980558;28;20026;-88
2022/05/29 02:33:52;;;;;;;11.98;2.63;;;;;;;;;;4965859;28;20037;-87
2022/05/29 02:36:22;;;;;;;;;;;;;;;;;;4984990;28;20113;-87
2022/05/29 02:39:03;;;;;;;13.13;2.85;;;;;;;;;;4978338;28;19918;-87
2022/05/29 02:41:37;;;;;;;10.68;2.50;;;;;;;;;;4963864;28;20033;-86
2022/05/29 02:44:07;;;;;;;12.57;3.00;;;;;;;;;;4969723;28;20054;-87
2022/05/29 02:46:33;;;;;;;11.30;2.75;;;;;;;;;;4965276;28;20182;-87
2022/05/29 02:49:07;;;;;;;13.45;2.83;;;;;;;;;;4979382;28;20038;-87
2022/05/29 02:51:42;;;;;;;16.88;3.00;;;;;;;;;;4981748;28;20113;-87
2022/05/29 02:54:13;;;;;;;7.90;2.38;;;;;;;;;;4967986;28;20034;-87
2022/05/29 02:56:40;;;;;;;11.55;3.63;;;;;;;;;;4963450;28;20121;-87
2022/05/29 02:59:14;;;;;;;9.40;2.45;;;;;;;;;;4969185;28;20060;-86
2022/05/29 03:01:44;;;;;;;15.95;3.03;;;;;;;;;;4965809;28;20121;-87
2022/05/29 03:04:22;;;;;;;16.83;3.20;;;;;;;;;;4969747;28;20030;-87
2022/05/29 03:06:54;;;;;;;18.75;2.65;;;;;;;;;;4965842;28;20036;-87
2022/05/29 03:09:28;;;;;;;14.95;3.95;;;;;;;;;;4968233;28;20033;-86
2022/05/29 03:11:54;;;;;;;13.80;3.08;;;;;;;;;;4978713;28;20505;-87
2022/05/29 03:14:30;;;;;;;13.30;3.30;;;;;;;;;;4965061;28;20030;-86
2022/05/29 03:17:09;;;;;;;21.15;2.97;;;;;;;;;;4984383;28;20033;-87
2022/05/29 03:20:07;;;;;;;20.73;3.10;;;;;;;;;;4983543;28;20022;-86
2022/05/29 03:22:34;;;;;;;10.43;2.70;;;;;;;;;;4922199;28;20051;-87
2022/05/29 03:25:20;;;;;;;17.27;2.72;;;;;;;;;;4960084;28;20384;-87
2022/05/29 03:27:51;;;;;;;8.52;2.78;;;;;;;;;;4966446;28;20498;-87
2022/05/29 03:30:19;;;;;;;16.63;2.65;;;;;;;;;;4955916;28;20062;-86
2022/05/29 03:32:47;;;;;;;13.77;2.83;;;;;;;;;;4965503;28;20038;-85
2022/05/29 03:35:16;;;;;;;11.13;2.45;;;;;;;;;;4967976;28;20525;-87
2022/05/29 03:37:42;;;;;;;6.03;1.98;;;;;;;;;;4964583;28;20479;-87
2022/05/29 03:40:09;;;;;;;12.90;2.30;;;;;;;;;;4964134;28;20046;-88
2022/05/29 03:42:35;;;;;;;8.98;2.40;;;;;;;;;;4949027;28;20121;-87
2022/05/29 03:45:01;;;;;;;10.15;2.38;;;;;;;;;;4963649;28;20858;-87
2022/05/29 03:47:27;;;;;;;7.68;2.00;;;;;;;;;;4969481;28;20022;-88
2022/05/29 03:49:53;;;;;;;12.35;2.72;;;;;;;;;;4964704;28;20403;-87
2022/05/29 03:52:20;;;;;;;11.52;2.72;;;;;;;;;;4960897;28;20065;-87
2022/05/29 03:54:46;;;;;;;18.52;2.80;;;;;;;;;;4960930;28;20034;-87
2022/05/29 03:57:12;;;;;;;8.00;2.30;;;;;;;;;;4965995;28;20041;-86
2022/05/29 03:59:38;;;;;;;10.52;2.20;;;;;;;;;;4967985;28;20026;-86
2022/05/29 04:02:04;;;;;;;13.73;3.22;;;;;;;;;;4983912;28;20041;-87
2022/05/29 04:04:30;;;;;;;8.63;1.85;;;;;;;;;;4966419;28;20754;-87
2022/05/29 04:06:56;;;;;;;13.30;3.17;;;;;;;;;;4965820;28;20066;-85
2022/05/29 04:12:13;;;;;;;13.23;2.25;;;;;;;;;;4984251;28;20036;-87
2022/05/29 04:14:40;;;;;;;20.58;2.67;;;;;;;;;;4962430;28;20202;-88
2022/05/29 04:17:07;;;;;;;19.13;2.53;;;;;;;;;;4966285;28;20038;-86
2022/05/29 04:19:33;;;;;;;18.65;1.98;;;;;;;;;;4966433;28;20092;-87
2022/05/29 04:22:00;;;;;;;16.27;2.70;;;;;;;;;;4969456;28;20031;-87
2022/05/29 04:24:33;;;;;;;18.42;3.20;;;;;;;;;;4952653;28;20051;-87
2022/05/29 04:26:59;;;;;;;12.38;2.47;;;;;;;;;;4946042;28;20034;-86
2022/05/29 04:29:25;;;;;;;12.80;3.10;;;;;;;;;;4948071;28;20037;-87
2022/05/29 04:34:36;;;;;;;15.85;2.53;;;;;;;;;;4962689;28;20122;-86
2022/05/29 04:37:03;;;;;;;15.10;2.72;;;;;;;;;;4946361;28;20474;-87
2022/05/29 04:39:32;;;;;;;15.98;3.03;;;;;;;;;;4943008;28;20054;-87
2022/05/29 04:42:00;;;;;;;17.70;3.42;;;;;;;;;;4948530;28;20035;-88
2022/05/29 04:44:26;;;;;;;18.63;3.05;;;;;;;;;;4940047;28;20023;-85
2022/05/29 04:46:53;;;;;;;16.35;3.80;;;;;;;;;;4957126;28;20113;-87
2022/05/29 04:49:19;;;;;;;16.48;2.33;;;;;;;;;;4962342;28;20031;-88
2022/05/29 04:51:45;;;;;;;26.17;4.10;;;;;;;;;;4946441;28;20182;-87
2022/05/29 04:54:11;;;;;;;24.23;4.20;;;;;;;;;;4945107;28;20038;-87
2022/05/29 04:56:37;;;;;;;14.23;2.17;;;;;;;;;;4948300;28;20030;-87
2022/05/29 04:59:03;;;;;;;24.33;2.83;;;;;;;;;;4947195;28;20031;-87
2022/05/29 05:01:29;;;;;;;16.35;2.42;;;;;;;;;;4943212;28;20215;-87
2022/05/29 05:03:55;;;;;;;21.13;5.65;;;;;;;;;;4947054;28;20034;-89
2022/05/29 05:06:22;;;;;;;12.25;2.47;;;;;;;;;;4960434;28;20027;-86
2022/05/29 05:08:48;;;;;;;15.07;2.63;;;;;;;;;;4946533;28;20036;-87
2022/05/29 05:11:14;;;;;;;13.85;3.15;;;;;;;;;;4945874;28;20053;-87
2022/05/29 05:13:40;;;;;;;18.50;2.65;;;;;;;;;;4942882;28;20122;-87
2022/05/29 05:16:06;;;;;;;17.98;3.22;;;;;;;;;;4948053;28;20037;-88
2022/05/29 05:18:33;;;;;;;12.77;2.67;;;;;;;;;;4945726;28;20043;-87
2022/05/29 05:20:59;;;;;;;12.50;1.90;;;;;;;;;;4944523;28;20046;-88
2022/05/29 05:23:27;;;;;;;19.75;2.95;;;;;;;;;;4955253;28;20123;-87
2022/05/29 05:25:53;;;;;;;23.75;3.45;;;;;;;;;;4976957;28;20457;-86
2022/05/29 05:28:20;;;;;;;24.48;3.50;;;;;;;;;;4965370;28;20045;-87
2022/05/29 05:30:47;;;;;;;23.33;4.45;;;;;;;;;;4969242;28;20022;-86
2022/05/29 05:33:13;;;;;;;18.05;2.88;;;;;;;;;;4967097;28;20098;-87
2022/05/29 05:35:39;;;;;;;26.42;3.88;;;;;;;;;;4954359;28;20034;-87
2022/05/29 05:38:06;;;;;;;15.35;2.67;;;;;;;;;;4964642;28;20037;-87
2022/05/29 05:40:39;;;;;;;18.98;5.40;;;;;;;;;;4967150;28;20120;-87
2022/05/29 05:43:05;;;;;;;14.88;2.80;;;;;;;;;;4973925;28;20030;-86
2022/05/29 05:45:32;;;;;;;10.05;3.13;;;;;;;;;;4966315;28;20553;-87
2022/05/29 05:47:58;;;;;;;16.58;3.00;;;;;;;;;;4983012;28;20118;-86
2022/05/29 05:50:24;;;;;;;13.48;2.53;;;;;;;;;;4965449;28;20066;-86
2022/05/29 05:52:50;;;;;;;16.83;3.10;;;;;;;;;;4965400;28;20058;-87
2022/05/29 05:55:16;;;;;;;15.23;2.88;;;;;;;;;;4962525;28;20041;-87
2022/05/29 05:57:42;;;;;;;19.02;2.63;;;;;;;;;;4977138;28;20030;-87
2022/05/29 06:00:10;;;;;;;15.32;2.95;;;;;;;;;;4962986;28;20049;-87
2022/05/29 06:02:36;;;;;;;13.43;2.50;;;;;;;;;;4966275;28;20414;-87
2022/05/29 06:05:03;;;;;;;15.07;3.50;;;;;;;;;;4979585;28;20382;-87
2022/05/29 06:07:29;;;;;;;21.38;2.88;;;;;;;;;;4966471;28;20105;-87
2022/05/29 06:09:55;;;;;;;15.68;2.67;;;;;;;;;;4969636;28;20034;-85
2022/05/29 06:12:21;;;;;;;11.85;2.45;;;;;;;;;;4970880;28;20038;-86
2022/05/29 06:14:48;;;;;;;12.23;2.50;;;;;;;;;;4979523;28;20026;-87
2022/05/29 06:17:15;;;;;;;15.90;2.42;;;;;;;;;;4969314;28;20126;-85
2022/05/29 06:19:41;;;;;;;8.85;1.67;;;;;;;;;;4964842;28;20041;-87
2022/05/29 06:22:07;;;;;;;14.48;2.20;;;;;;;;;;4964837;28;20023;-87
2022/05/29 06:24:34;;;;;;;10.85;2.38;;;;;;;;;;4961343;28;20058;-87
2022/05/29 06:27:00;;;;;;;10.23;2.30;;;;;;;;;;4982778;28;20030;-85
2022/05/29 06:29:26;;;;;;;13.00;2.35;;;;;;;;;;4964572;28;20451;-88
2022/05/29 06:31:55;;;;;;;12.70;2.72;;;;;;;;;;4963815;28;20561;-88
2022/05/29 06:34:22;;;;;;;8.90;1.98;;;;;;;;;;4966024;28;20041;-87
2022/05/29 06:36:48;;;;;;;6.63;2.33;;;;;;;;;;4968494;28;20513;-87
2022/05/29 06:39:14;;;;;;;13.15;1.60;;;;;;;;;;4970662;28;20554;-87
2022/05/29 06:41:40;;;;;;;12.70;2.50;;;;;;;;;;4962786;28;20038;-88
2022/05/29 06:44:06;;;;;;;12.00;1.67;;;;;;;;;;4965344;28;20026;-87
2022/05/29 06:46:33;;;;;;;10.50;1.63;;;;;;;;;;4976640;28;20030;-88
2022/05/29 06:48:59;;;;;;;9.10;1.52;;;;;;;;;;4968765;28;20441;-87
2022/05/29 06:51:26;;;;;;;10.43;2.17;;;;;;;;;;4982061;28;20086;-88
2022/05/29 06:53:54;;;;;;;9.38;2.40;;;;;;;;;;4965091;28;20424;-88
2022/05/29 06:56:20;;;;;;;6.63;1.77;;;;;;;;;;4967313;28;20305;-87
2022/05/29 06:58:46;;;;;;;11.02;1.92;;;;;;;;;;4964524;28;20512;-85
2022/05/29 07:07:00;;;;;;;20.23;2.53;;;;;;;;;;4981633;28;20041;-86
2022/05/29 07:09:42;;;;;;;19.02;2.10;;;;;;;;;;4960551;28;20458;-86
2022/05/29 07:12:08;;;;;;;9.27;2.03;;;;;;;;;;4961119;28;20093;-87
2022/05/29 07:14:36;;;;;;;13.45;2.08;;;;;;;;;;4954141;28;20102;-86
2022/05/29 07:17:02;;;;;;;12.20;1.98;;;;;;;;;;4962133;28;20046;-88
2022/05/29 07:19:28;;;;;;;13.05;1.70;;;;;;;;;;4966442;28;20520;-87
2022/05/29 07:21:56;;;;;;;11.65;2.03;;;;;;;;;;4965894;28;20108;-88
2022/05/29 07:24:22;;;;;;;8.43;1.67;;;;;;;;;;4964387;28;20050;-86
2022/05/29 07:26:48;;;;;;;11.45;1.90;;;;;;;;;;4965784;28;20046;-87
2022/05/29 07:29:17;;;;;;;9.63;1.50;;;;;;;;;;4964197;28;20042;-85
2022/05/29 07:31:43;;;;;;;9.70;1.92;;;;;;;;;;4960923;28;20053;-88
2022/05/29 07:34:09;;;;;;;9.63;2.35;;;;;;;;;;4974798;28;20533;-85
2022/05/29 07:36:35;;;;;;;16.38;2.35;;;;;;;;;;4965333;28;20034;-88
2022/05/29 07:39:01;;;;;;;14.18;2.25;;;;;;;;;;4960286;28;20038;-88
2022/05/29 07:44:12;;;;;;;11.98;2.20;;;;;;;;;;4978842;28;20114;-87
2022/05/29 07:46:38;;;;;;;5.55;1.45;;;;;;;;;;4963621;28;20118;-87
2022/05/29 07:49:04;;;;;;;6.05;1.25;;;;;;;;;;4965163;28;20609;-88
2022/05/29 07:51:30;;;;;;;6.20;1.27;;;;;;;;;;4965044;28;20460;-86
2022/05/29 07:53:57;;;;;;;4.03;1.30;;;;;;;;;;4961916;28;20453;-87
2022/05/29 07:56:24;;;;;;;11.98;2.00;;;;;;;;;;4976947;28;20023;-86
2022/05/29 07:58:50;;;;;;;3.08;0.98;;;;;;;;;;4959271;28;20045;-87
2022/05/29 08:01:16;;;;;;;9.27;1.63;;;;;;;;;;4965613;28;20038;-87
2022/05/29 08:03:43;;;;;;;3.13;1.00;;;;;;;;;;4966351;28;20029;-87
2022/05/29 08:06:09;;;;;;;7.25;1.48;;;;;;;;;;4962142;28;20130;-88
2022/05/29 08:08:35;;;;;;;7.03;1.50;;;;;;;;;;4978902;28;20026;-86
2022/05/29 08:11:01;;;;;;;7.13;1.30;;;;;;;;;;4974473;28;20045;-87
2022/05/29 08:13:28;;;;;;;9.75;1.27;;;;;;;;;;4965421;28;20034;-87
2022/05/29 08:15:54;;;;;;;9.55;1.35;;;;;;;;;;4960143;28;20038;-86
2022/05/29 08:18:20;;;;;;;12.77;1.58;;;;;;;;;;4976409;28;20045;-86
2022/05/29 08:20:46;;;;;;;10.55;2.58;;;;;;;;;;4980063;28;20047;-85
2022/05/29 08:23:12;;;;;;;4.50;0.98;;;;;;;;;;4981044;28;20547;-88
2022/05/29 08:31:15;;;;;;;9.55;1.33;;;;;;;;;;4981715;28;20056;-88
2022/05/29 08:33:43;;;;;;;9.27;1.58;;;;;;;;;;4972561;28;20034;-88
2022/05/29 08:36:11;;;;;;;7.60;1.65;;;;;;;;;;4982279;28;20118;-86
2022/05/29 08:38:39;;;;;;;12.98;1.50;;;;;;;;;;4969467;28;20120;-87
2022/05/29 08:41:06;;;;;;;6.05;1.73;;;;;;;;;;4958061;28;20892;-87
2022/05/29 08:43:36;;;;;;;3.28;1.50;;;;;;;;;;4967463;28;20497;-85
2022/05/29 08:46:08;;;;;;;8.20;1.67;;;;;;;;;;4964711;28;20034;-87
2022/05/29 08:48:35;;;;;;;11.90;1.58;;;;;;;;;;4967238;28;20077;-87
2022/05/29 08:51:08;;;;;;;8.02;1.45;;;;;;;;;;4967641;28;20477;-87
2022/05/29 08:53:36;;;;;;;4.35;1.40;;;;;;;;;;4968779;28;20030;-87
2022/05/29 08:56:23;;;;;;;8.50;1.48;;;;;;;;;;4969285;28;20039;-87
2022/05/29 08:59:03;;;;;;;8.60;1.75;;;;;;;;;;4986927;28;20046;-87
2022/05/29 09:01:51;;;;;;;6.07;1.42;;;;;;;;;;4976015;28;20026;-87
2022/05/29 09:04:25;;;;;;;7.00;0.98;;;;;;;;;;4961067;28;20031;-88
2022/05/29 09:06:53;;;;;;;5.43;1.20;;;;;;;;;;4964336;28;20033;-85
2022/05/29 09:09:42;;;;;;;11.93;1.45;;;;;;;;;;4972064;28;20113;-87
2022/05/29 09:12:12;;;;;;;7.13;1.23;;;;;;;;;;4951316;28;20049;-87
2022/05/29 09:14:46;;;;;;;7.63;1.27;;;;;;;;;;4977157;28;20026;-87
2022/05/29 09:17:14;;;;;;;7.32;1.42;;;;;;;;;;4960128;28;20038;-87
2022/05/29 09:20:09;;;;;;;8.35;1.20;;;;;;;;;;4976257;28;20030;-86
2022/05/29 09:22:38;;;;;;;9.55;1.45;;;;;;;;;;4961640;28;20497;-86
2022/05/29 09:25:23;;;;;;;8.52;1.80;;;;;;;;;;4982362;28;20494;-87
2022/05/29 09:27:49;;;;;;;4.13;1.45;;;;;;;;;;4965174;28;20432;-87
2022/05/29 09:30:16;;;;;;;7.65;1.40;;;;;;;;;;4982716;28;20190;-87
2022/05/29 09:32:49;;;;;;;12.60;1.80;;;;;;;;;;4964136;28;20411;-87
2022/05/29 09:35:18;;;;;;;9.77;1.50;;;;;;;;;;4977779;28;20042;-88
2022/05/29 09:37:53;;;;;;;9.77;1.58;;;;;;;;;;4960936;28;20034;-87
2022/05/29 09:40:24;;;;;;;7.30;2.25;;;;;;;;;;4969788;28;20474;-86
2022/05/29 09:42:53;;;;;;;6.88;1.42;;;;;;;;;;4964317;28;20042;-87
2022/05/29 09:45:22;;;;;;;10.93;1.48;;;;;;;;;;4980386;28;20482;-88
2022/05/29 09:50:42;;;;;;;3.60;1.13;;;;;;;;;;4981728;28;20078;-87
2022/05/29 09:53:16;;;;;;;5.85;1.27;;;;;;;;;;4964731;28;20526;-87
2022/05/29 09:55:57;;;;;;;5.50;1.25;;;;;;;;;;4968723;28;20034;-88
2022/05/29 09:58:36;;;;;;;5.03;0.95;;;;;;;;;;4970252;28;20085;-87
2022/05/29 10:01:04;;;;;;;11.32;1.65;;;;;;;;;;4977289;28;20035;-87
2022/05/29 10:03:33;;;;;;;16.92;2.15;;;;;;;;;;4961146;28;20490;-87
2022/05/29 10:06:14;;;;;;;9.48;1.40;;;;;;;;;;4960811;28;20034;-87
2022/05/29 10:08:40;;;;;;;11.80;2.42;;;;;;;;;;4965452;28;20054;-87
2022/05/29 10:11:27;;;;;;;14.70;2.95;;;;;;;;;;4965258;28;20033;-87
2022/05/29 10:13:54;;;;;;;31.02;5.88;;;;;;;;;;4975240;28;20038;-86
2022/05/29 10:16:36;;;;;;;9.98;2.58;;;;;;;;;;4970693;28;20494;-88
2022/05/29 10:19:03;;;;;;;9.48;1.85;;;;;;;;;;4973369;28;20027;-87
2022/05/29 10:21:37;;;;;;;16.60;2.15;;;;;;;;;;4969445;28;20506;-86
2022/05/29 10:24:24;;;;;;;7.00;1.45;;;;;;;;;;4983133;28;20129;-88
2022/05/29 10:26:55;;;;;;;12.38;1.50;;;;;;;;;;4962336;28;20043;-88
2022/05/29 10:29:32;;;;;;;10.57;1.95;;;;;;;;;;4947251;28;20066;-87
2022/05/29 10:31:58;;;;;;;10.65;1.83;;;;;;;;;;4977269;28;20086;-87
2022/05/29 10:34:27;;;;;;;5.65;1.48;;;;;;;;;;4953263;28;20089;-87
2022/05/29 10:36:54;;;;;;;11.52;1.50;;;;;;;;;;4954376;28;20026;-87
2022/05/29 10:39:20;;;;;;;6.85;1.25;;;;;;;;;;4963913;28;20077;-87
2022/05/29 10:41:47;;;;;;;10.50;2.08;;;;;;;;;;4963559;28;20425;-87
2022/05/29 10:44:14;;;;;;;24.58;1.98;;;;;;;;;;4957284;28;20139;-87
2022/05/29 10:46:42;;;;;;;9.15;2.63;;;;;;;;;;4962354;28;20375;-87
2022/05/29 10:49:17;;;;;;;19.02;1.85;;;;;;;;;;4954302;28;20030;-88
2022/05/29 10:51:46;;;;;;;10.13;1.40;;;;;;;;;;4985269;28;20550;-87
2022/05/29 10:54:37;;;;;;;7.85;1.45;;;;;;;;;;4966812;28;20030;-88
2022/05/29 10:57:03;;;;;;;4.75;1.42;;;;;;;;;;4966066;28;20030;-87
2022/05/29 10:59:35;;;;;;;11.95;1.88;;;;;;;;;;4964126;28;20027;-87
2022/05/29 11:04:51;;;;;;;8.70;1.92;;;;;;;;;;4980921;28;20097;-88
2022/05/29 11:07:33;;;;;;;9.40;1.85;;;;;;;;;;4961380;28;20062;-88
2022/05/29 11:10:07;;;;;;;4.07;1.30;;;;;;;;;;4976169;28;20034;-88
2022/05/29 11:12:42;;;;;;;2.22;1.05;;;;;;;;;;4971195;28;20454;-88
2022/05/29 11:15:08;;;;;;;7.55;1.25;;;;;;;;;;4966753;28;20051;-86
2022/05/29 11:17:52;;;;;;;13.80;1.70;;;;;;;;;;4966983;28;20030;-88
2022/05/29 11:20:18;;;;;;;9.10;1.80;;;;;;;;;;4965674;28;20063;-88
2022/05/29 11:22:44;;;;;;;13.50;1.90;;;;;;;;;;4962915;28;20038;-87
2022/05/29 11:25:22;;;;;;;8.45;1.92;;;;;;;;;;4964281;28;20050;-86
2022/05/29 11:28:08;;;;;;;11.95;2.38;;;;;;;;;;4968401;28;20482;-87
2022/05/29 11:30:46;;;;;;;9.32;1.52;;;;;;;;;;4982159;28;20108;-87
2022/05/29 11:33:18;;;;;;;13.18;2.15;;;;;;;;;;4966874;28;20030;-83
2022/05/29 11:35:47;;;;;;;11.48;2.40;;;;;;;;;;4980850;28;20026;-83
2022/05/29 11:38:44;;;;;;;6.22;1.55;;;;;;;;;;4981521;28;20137;-83
2022/05/29 11:41:22;;;;;;;14.60;1.90;;;;;;;;;;4965931;28;20030;-84
2022/05/29 11:44:01;;;;;;;10.82;1.63;;;;;;;;;;4982971;28;20031;-83
2022/05/29 11:52:16;;;;;;;;;;;;;;;;;;4982030;28;20046;-84
2022/05/29 11:55:06;;;;;;;7.28;1.95;;;;;;;;;;4969334;28;19913;-84
2022/05/29 11:57:39;;;;;;;12.55;2.10;;;;;;;;;;4970902;28;20490;-83
2022/05/29 12:00:09;;;;;;;8.32;2.05;;;;;;;;;;4962708;28;20506;-83
2022/05/29 12:02:55;;;;;;;12.18;1.95;;;;;;;;;;4967485;28;20093;-84
2022/05/29 12:05:27;;;;;;;15.70;2.20;;;;;;;;;;4976327;28;20077;-83
2022/05/29 12:08:12;;;;;;;23.13;6.78;;;;;;;;;;4959864;28;20041;-84
2022/05/29 12:10:50;;;;;;;20.10;6.93;;;;;;;;;;4958682;28;20513;-83
2022/05/29 12:13:17;;;;;;;20.15;9.18;;;;;;;;;;4968245;28;20038;-83
2022/05/29 12:15:46;;;;;;;20.02;5.18;;;;;;;;;;4960950;28;20080;-83
2022/05/29 12:18:19;;;;;;;7.68;2.88;;;;;;;;;;4968021;28;20138;-83
2022/05/29 12:20:50;;;;;;;11.73;2.75;;;;;;;;;;4954253;28;20034;-83
2022/05/29 12:23:38;;;;;;;10.23;2.13;;;;;;;;;;4959595;28;20566;-84
2022/05/29 12:26:06;;;;;;;12.30;2.03;;;;;;;;;;4959991;28;20929;-84
2022/05/29 12:28:32;;;;;;;10.15;1.77;;;;;;;;;;4955511;28;20407;-83
2022/05/29 12:30:59;;;;;;;9.95;1.88;;;;;;;;;;4964715;28;20029;-83
2022/05/29 12:33:25;;;;;;;7.65;1.48;;;;;;;;;;4960500;28;20047;-84
2022/05/29 12:35:51;;;;;;;5.50;1.80;;;;;;;;;;4966073;28;20402;-84
2022/05/29 12:38:29;;;;;;;11.60;2.25;;;;;;;;;;4963225;28;20046;-84
2022/05/29 12:41:07;;;;;;;11.60;1.90;;;;;;;;;;4980577;28;20235;-84
2022/05/29 12:43:42;;;;;;;11.00;1.70;;;;;;;;;;4969565;28;20046;-85
2022/05/29 12:46:14;;;;;;;9.07;1.92;;;;;;;;;;4963568;28;20042;-85
2022/05/29 12:48:40;;;;;;;10.65;1.42;;;;;;;;;;4958910;28;20043;-84
2022/05/29 12:51:13;;;;;;;5.18;1.75;;;;;;;;;;4983591;28;20033;-84
2022/05/29 12:53:58;;;;;;;10.13;1.85;;;;;;;;;;4966725;28;20556;-84
2022/05/29 12:56:43;;;;;;;10.05;1.95;;;;;;;;;;4962852;28;20035;-84
2022/05/29 12:59:18;;;;;;;15.85;2.35;;;;;;;;;;4960239;28;20453;-84
2022/05/29 13:02:03;;;;;;;12.88;2.45;;;;;;;;;;4959444;28;20038;-84
2022/05/29 13:04:47;;;;;;;8.15;1.70;;;;;;;;;;4981368;28;20031;-85
2022/05/29 13:07:27;;;;;;;5.80;1.48;;;;;;;;;;4962282;28;20030;-84
2022/05/29 13:09:59;;;;;;;6.32;1.50;;;;;;;;;;4963542;28;20183;-84
2022/05/29 13:12:36;;;;;;;10.98;1.73;;;;;;;;;;4964421;28;20058;-84
2022/05/29 13:15:06;;;;;;;18.88;2.05;;;;;;;;;;4980376;28;20030;-84
2022/05/29 13:17:33;;;;;;;17.15;2.08;;;;;;;;;;4959899;28;20038;-85
2022/05/29 13:20:02;;;;;;;9.10;1.75;;;;;;;;;;4958238;28;20643;-85
2022/05/29 13:22:46;;;;;;;14.57;2.50;;;;;;;;;;4973862;28;20049;-84
2022/05/29 13:25:13;;;;;;;13.70;2.65;;;;;;;;;;4958347;28;20541;-84
2022/05/29 13:27:39;;;;;;;10.18;2.20;;;;;;;;;;4966263;28;20483;-85
2022/05/29 13:30:06;;;;;;;12.65;1.70;;;;;;;;;;4956566;28;20457;-85
2022/05/29 13:32:33;;;;;;;9.38;1.80;;;;;;;;;;4960223;28;20035;-85
2022/05/29 13:35:05;;;;;;;11.15;1.83;;;;;;;;;;4962815;28;20037;-85
2022/05/29 13:37:42;;;;;;;8.10;1.63;;;;;;;;;;4978877;28;20034;-84
2022/05/29 13:40:10;;;;;;;9.70;2.28;;;;;;;;;;4979396;28;20291;-85
2022/05/29 13:42:38;;;;;;;10.32;1.63;;;;;;;;;;4980659;28;20038;-85
2022/05/29 13:45:19;;;;;;;7.68;2.10;;;;;;;;;;4966969;28;20023;-85
2022/05/29 13:47:47;;;;;;;15.27;1.88;;;;;;;;;;4964216;28;20871;-85
2022/05/29 13:50:13;;;;;;;15.52;2.42;;;;;;;;;;4962613;28;20142;-85
2022/05/29 13:52:46;;;;;;;7.70;1.77;;;;;;;;;;4973904;28;20039;-85
2022/05/29 13:55:17;;;;;;;12.35;1.52;;;;;;;;;;4959327;28;20039;-85
2022/05/29 14:03:58;;;;;;;5.63;1.90;;;;;;;;;;4976242;28;20037;-85
2022/05/29 14:06:30;;;;;;;7.70;1.50;;;;;;;;;;4955694;28;20031;-85
2022/05/29 14:08:58;;;;;;;7.88;1.98;;;;;;;;;;4965144;28;20026;-84
2022/05/29 14:11:43;;;;;;;8.43;1.70;;;;;;;;;;4957981;28;21342;-85
2022/05/29 14:14:28;;;;;;;10.00;1.80;;;;;;;;;;4973591;28;20046;-85
2022/05/29 14:16:56;;;;;;;8.90;2.25;;;;;;;;;;4962690;28;20117;-85
2022/05/29 14:19:25;;;;;;;10.88;2.25;;;;;;;;;;4965492;28;20042;-85
2022/05/29 14:22:11;;;;;;;16.88;2.70;;;;;;;;;;4954368;28;21870;-85
2022/05/29 14:24:37;;;;;;;8.10;2.30;;;;;;;;;;4958783;28;20505;-85
2022/05/29 14:27:24;;;;;;;11.48;1.90;;;;;;;;;;4959450;28;20042;-85
2022/05/29 14:30:05;;;;;;;14.45;1.75;;;;;;;;;;4935527;28;20384;-85
2022/05/29 14:32:31;;;;;;;11.75;2.30;;;;;;;;;;4946005;28;20043;-85
2022/05/29 14:35:01;;;;;;;10.27;2.10;;;;;;;;;;4956325;28;20092;-86
2022/05/29 14:37:45;;;;;;;11.55;2.45;;;;;;;;;;4947120;28;20034;-84
2022/05/29 14:40:40;;;;;;;8.88;2.13;;;;;;;;;;4944538;28;20042;-85
2022/05/29 14:43:10;;;;;;;15.93;2.53;;;;;;;;;;4942895;28;20094;-85
2022/05/29 14:45:36;;;;;;;16.48;2.40;;;;;;;;;;4933530;28;20458;-85
2022/05/29 14:48:08;;;;;;;12.82;2.45;;;;;;;;;;4947346;28;20493;-85
2022/05/29 14:50:41;;;;;;;10.50;2.25;;;;;;;;;;4950053;28;20035;-85
2022/05/29 14:53:25;;;;;;;6.53;1.92;;;;;;;;;;4963766;28;20042;-85
2022/05/29 14:55:58;;;;;;;11.57;3.85;;;;;;;;;;4952637;28;20690;-84
2022/05/29 14:58:29;;;;;;;14.85;2.67;;;;;;;;;;4960780;28;20038;-85
2022/05/29 15:00:57;;;;;;;9.82;1.90;;;;;;;;;;4957900;28;20171;-84
2022/05/29 15:03:27;;;;;;;12.88;3.35;;;;;;;;;;4960255;28;20027;-85
2022/05/29 15:05:58;;;;;;;7.15;1.92;;;;;;;;;;4959138;28;20057;-85
2022/05/29 15:11:13;;;;;;;17.83;2.70;;;;;;;;;;4958126;28;20041;-84
2022/05/29 15:13:58;;;;;;;11.30;2.42;;;;;;;;;;4943212;28;20904;-85
2022/05/29 15:16:25;;;;;;;22.40;2.80;;;;;;;;;;4940554;28;20550;-84
2022/05/29 15:18:51;;;;;;;17.02;2.85;;;;;;;;;;4943582;28;20571;-84
2022/05/29 15:24:10;;;;;;;14.63;3.35;;;;;;;;;;4957172;28;20114;-84
2022/05/29 15:26:37;;;;;;;10.30;2.85;;;;;;;;;;4946770;28;20035;-84
2022/05/29 15:29:09;;;;;;;16.35;2.20;;;;;;;;;;4956909;28;20487;-84
2022/05/29 15:31:36;;;;;;;11.50;2.30;;;;;;;;;;4955641;28;20035;-84
2022/05/29 15:34:02;;;;;;;7.03;1.88;;;;;;;;;;4942286;28;20031;-84
2022/05/29 15:36:31;;;;;;;20.50;3.47;;;;;;;;;;4943457;28;20046;-85
2022/05/29 15:39:11;;;;;;;17.13;2.00;;;;;;;;;;4941637;28;20342;-85